createdAt,value
2018-09-08T00:00:31.269Z,94917.50
2018-09-08T00:02:57.672Z,94918.68
2018-09-08T00:05:24.022Z,94922.03
2018-09-08T00:07:50.351Z,94921.12
2018-09-08T00:10:16.716Z,94915.09
2018-09-08T00:12:43.098Z,94919.61
2018-09-08T00:15:09.432Z,94919.61
2018-09-08T00:17:35.760Z,94917.55
2018-09-08T00:20:02.115Z,94918.84
2018-09-08T00:22:28.445Z,94921.98
2018-09-08T00:24:54.775Z,94914.92
2018-09-08T00:27:21.107Z,94917.74
2018-09-08T00:29:47.509Z,94919.25
2018-09-08T00:32:13.885Z,94922.89
2018-09-08T00:34:40.282Z,94933.20
2018-09-08T00:37:06.631Z,94934.02
2018-09-08T00:39:33.004Z,94929.80
2018-09-08T00:41:59.401Z,94924.06
2018-09-08T00:44:25.780Z,94938.65
2018-09-08T00:46:52.173Z,94936.54
2018-09-08T00:49:18.512Z,94938.79
2018-09-08T00:51:44.847Z,94931.22
2018-09-08T00:54:11.208Z,94933.38
2018-09-08T00:56:37.557Z,94938.48
2018-09-08T00:59:03.887Z,94944.48
2018-09-08T01:01:30.209Z,94938.73
2018-09-08T01:03:56.563Z,94947.16
2018-09-08T01:06:22.898Z,94941.73
2018-09-08T01:08:49.238Z,94940.06
2018-09-08T01:11:15.623Z,94948.34
2018-09-08T01:13:41.935Z,94954.25
2018-09-08T01:16:08.264Z,94945.66
2018-09-08T01:18:34.587Z,94950.45
2018-09-08T01:21:00.962Z,94951.45
2018-09-08T01:23:27.288Z,94960.70
2018-09-08T01:25:53.652Z,94963.79
2018-09-08T01:28:20.019Z,94963.41
2018-09-08T01:30:46.380Z,94960.72
2018-09-08T01:33:12.712Z,94959.84
2018-09-08T01:35:39.100Z,94955.49
2018-09-08T01:38:05.461Z,94948.23
2018-09-08T01:40:31.807Z,94946.02
2018-09-08T01:42:58.200Z,94946.20
2018-09-08T01:45:24.588Z,94946.26
2018-09-08T01:47:50.920Z,94949.02
2018-09-08T01:50:17.277Z,94945.98
2018-09-08T01:52:43.596Z,94946.08
2018-09-08T01:55:09.968Z,94946.45
2018-09-08T01:57:36.329Z,94949.02
2018-09-08T02:00:02.762Z,94950.59
2018-09-08T02:02:29.114Z,94943.70
2018-09-08T02:04:55.454Z,94945.50
2018-09-08T02:07:21.784Z,94946.84
2018-09-08T02:09:48.157Z,94949.03
2018-09-08T02:12:14.517Z,94943.71
2018-09-08T02:14:40.842Z,94946.62
2018-09-08T02:17:07.194Z,94945.38
2018-09-08T02:19:33.511Z,94953.19
2018-09-08T02:21:59.836Z,94941.76
2018-09-08T02:24:26.252Z,94946.86
2018-09-08T02:26:52.607Z,94940.47
2018-09-08T02:29:18.938Z,94941.84
2018-09-08T02:31:45.307Z,94938.44
2018-09-08T02:34:11.701Z,94935.56
2018-09-08T02:36:38.167Z,94937.26
2018-09-08T02:39:04.531Z,94942.00
2018-09-08T02:41:30.859Z,94945.12
2018-09-08T02:43:57.192Z,94948.52
2018-09-08T02:46:23.665Z,94946.92
2018-09-08T02:48:50.042Z,94949.22
2018-09-08T02:51:16.423Z,94943.98
2018-09-08T02:53:42.757Z,94945.27
2018-09-08T02:56:09.121Z,94946.64
2018-09-08T02:58:35.480Z,94951.02
2018-09-08T03:01:01.851Z,94955.39
2018-09-08T03:03:28.187Z,94959.26
2018-09-08T03:05:54.495Z,94968.05
2018-09-08T03:08:20.825Z,94967.12
2018-09-08T03:10:47.718Z,94969.74
2018-09-08T03:13:14.112Z,94972.73
2018-09-08T03:15:40.449Z,94972.09
2018-09-08T03:18:06.810Z,94973.60
2018-09-08T03:20:33.139Z,94977.19
2018-09-08T03:22:59.463Z,94968.98
2018-09-08T03:25:25.828Z,94973.66
2018-09-08T03:27:52.204Z,94978.81
2018-09-08T03:30:18.560Z,94979.92
2018-09-08T03:32:44.899Z,94976.02
2018-09-08T03:35:11.806Z,94973.84
2018-09-08T03:37:38.160Z,94968.95
2018-09-08T03:40:04.556Z,94972.30
2018-09-08T03:42:31.021Z,94968.95
2018-09-08T03:44:57.365Z,94969.83
2018-09-08T03:47:23.696Z,94975.72
2018-09-08T03:49:50.036Z,94969.65
2018-09-08T03:52:16.413Z,94967.48
2018-09-08T03:54:42.752Z,94968.65
2018-09-08T03:57:09.079Z,94970.16
2018-09-08T03:59:35.443Z,94972.09
2018-09-08T04:02:01.780Z,94971.81
2018-09-08T04:04:28.287Z,94973.92
2018-09-08T04:06:54.655Z,94976.32
2018-09-08T04:09:21.025Z,94981.93
2018-09-08T04:11:47.366Z,94981.98
2018-09-08T04:14:13.728Z,94980.41
2018-09-08T04:16:40.055Z,94988.23
2018-09-08T04:19:06.394Z,94989.37
2018-09-08T04:21:32.730Z,94992.69
2018-09-08T04:23:59.177Z,94992.30
2018-09-08T04:26:25.492Z,94996.72
2018-09-08T04:28:51.826Z,94998.73
2018-09-08T04:31:18.173Z,95012.30
2018-09-08T04:33:44.513Z,95008.19
2018-09-08T04:36:10.838Z,95014.02
2018-09-08T04:38:37.171Z,95007.44
2018-09-08T04:41:03.570Z,95011.58
2018-09-08T04:43:29.887Z,95012.76
2018-09-08T04:45:56.270Z,95017.14
2018-09-08T04:48:22.633Z,95023.11
2018-09-08T04:50:48.971Z,95026.45
2018-09-08T04:53:15.385Z,95031.53
2018-09-08T04:55:41.790Z,95031.78
2018-09-08T04:58:08.131Z,95035.10
2018-09-08T05:00:34.575Z,95033.77
2018-09-08T05:03:00.937Z,95034.18
2018-09-08T05:05:27.268Z,95035.41
2018-09-08T05:07:53.632Z,95036.39
2018-09-08T05:10:19.972Z,95038.97
2018-09-08T05:12:46.357Z,95039.42
2018-09-08T05:15:12.687Z,95035.47
2018-09-08T05:17:39.056Z,95042.55
2018-09-08T05:20:05.429Z,95042.09
2018-09-08T05:22:31.761Z,95049.81
2018-09-08T05:24:58.092Z,95046.87
2018-09-08T05:27:24.460Z,95049.73
2018-09-08T05:29:50.817Z,95050.60
2018-09-08T05:32:17.152Z,95046.00
2018-09-08T05:34:43.524Z,95052.30
2018-09-08T05:37:09.895Z,95046.69
2018-09-08T05:39:36.246Z,95045.13
2018-09-08T05:42:02.605Z,95047.92
2018-09-08T05:44:28.944Z,95050.78
2018-09-08T05:46:55.303Z,95052.84
2018-09-08T05:49:21.631Z,95052.84
2018-09-08T05:51:47.996Z,95049.75
2018-09-08T05:54:14.343Z,95053.02
2018-09-08T05:56:40.668Z,95050.16
2018-09-08T05:59:07.036Z,95057.60
2018-09-08T06:01:33.359Z,95057.47
2018-09-08T06:03:59.690Z,95059.39
2018-09-08T06:06:26.071Z,95066.42
2018-09-08T06:08:52.387Z,95068.77
2018-09-08T06:11:18.780Z,95071.98
2018-09-08T06:13:45.120Z,95073.53
2018-09-08T06:16:11.486Z,95069.48
2018-09-08T06:18:37.845Z,95077.02
2018-09-08T06:21:04.264Z,95074.16
2018-09-08T06:23:30.626Z,95076.03
2018-09-08T06:25:56.961Z,95076.27
2018-09-08T06:28:23.350Z,95076.11
2018-09-08T06:30:49.699Z,95078.59
2018-09-08T06:33:16.068Z,95072.64
2018-09-08T06:35:42.430Z,95078.46
2018-09-08T06:38:08.887Z,95079.79
2018-09-08T06:40:35.216Z,95076.97
2018-09-08T06:43:01.549Z,95080.03
2018-09-08T06:45:27.918Z,95077.63
2018-09-08T06:47:54.248Z,95079.60
2018-09-08T06:50:20.591Z,95084.52
2018-09-08T06:52:46.981Z,95085.16
2018-09-08T06:55:13.312Z,95086.14
2018-09-08T06:57:39.646Z,95091.06
2018-09-08T07:00:05.970Z,95094.00
2018-09-08T07:02:32.332Z,95088.96
2018-09-08T07:04:58.741Z,95097.93
2018-09-08T07:07:25.155Z,95094.39
2018-09-08T07:09:51.528Z,95101.20
2018-09-08T07:12:17.865Z,95102.34
2018-09-08T07:14:44.221Z,95102.08
2018-09-08T07:19:43.118Z,95099.72
2018-09-08T07:22:09.611Z,95104.00
2018-09-08T07:24:35.971Z,95106.11
2018-09-08T07:27:02.299Z,95108.64
2018-09-08T07:29:28.679Z,95104.00
2018-09-08T07:31:55.020Z,95105.65
2018-09-08T07:34:21.385Z,95105.52
2018-09-08T07:36:47.729Z,95112.78
2018-09-08T07:39:14.112Z,95111.08
2018-09-08T07:41:40.443Z,95115.77
2018-09-08T07:44:06.783Z,95116.13
2018-09-08T07:46:33.120Z,95114.44
2018-09-08T07:48:59.442Z,95119.53
2018-09-08T07:51:25.815Z,95124.04
2018-09-08T07:53:52.204Z,95118.34
2018-09-08T07:56:18.555Z,95115.42
2018-09-08T07:58:44.883Z,95118.70
2018-09-08T08:01:11.249Z,95115.87
2018-09-08T08:03:37.587Z,95115.77
2018-09-08T08:06:03.952Z,95115.68
2018-09-08T08:08:30.292Z,95119.39
2018-09-08T08:10:56.667Z,95115.74
2018-09-08T08:13:22.997Z,95120.30
2018-09-08T08:15:49.364Z,95108.36
2018-09-08T08:18:15.699Z,95109.41
2018-09-08T08:20:42.082Z,95109.27
2018-09-08T08:23:08.497Z,95112.20
2018-09-08T08:25:34.897Z,95120.61
2018-09-08T08:28:01.250Z,95115.67
2018-09-08T08:30:27.623Z,95111.80
2018-09-08T08:32:53.946Z,95115.61
2018-09-08T08:35:20.276Z,95121.81
2018-09-08T08:37:46.598Z,95119.70
2018-09-08T08:40:12.964Z,95117.27
2018-09-08T08:42:39.299Z,95122.92
2018-09-08T08:45:05.633Z,95120.23
2018-09-08T08:47:32.002Z,95117.59
2018-09-08T08:49:58.385Z,95110.38
2018-09-08T08:52:24.736Z,95106.09
2018-09-08T08:54:51.051Z,95105.98
2018-09-08T08:57:17.419Z,95102.06
2018-09-08T08:59:43.747Z,95099.58
2018-09-08T09:02:10.108Z,95104.55
2018-09-08T09:04:36.485Z,95102.74
2018-09-08T09:07:03.264Z,95103.38
2018-09-08T09:09:29.212Z,95096.65
2018-09-08T09:11:56.056Z,95091.73
2018-09-08T09:14:22.016Z,95102.30
2018-09-08T09:16:48.364Z,95099.30
2018-09-08T09:19:14.740Z,95105.70
2018-09-08T09:21:41.127Z,95105.23
2018-09-08T09:24:07.541Z,95103.75
2018-09-08T09:26:33.822Z,95101.17
2018-09-08T09:29:00.175Z,95100.44
2018-09-08T09:31:26.529Z,95102.00
2018-09-08T09:33:52.899Z,95099.77
2018-09-08T09:36:19.429Z,95094.55
2018-09-08T09:38:45.775Z,95095.70
2018-09-08T09:41:12.148Z,95099.58
2018-09-08T09:43:38.517Z,95096.94
2018-09-08T09:46:04.860Z,95098.17
2018-09-08T09:48:31.286Z,95092.61
2018-09-08T09:50:57.623Z,95095.52
2018-09-08T09:53:23.980Z,95092.00
2018-09-08T09:55:50.312Z,95086.48
2018-09-08T09:58:16.673Z,95086.72
2018-09-08T10:00:43.023Z,95090.98
2018-09-08T10:03:09.403Z,95085.02
2018-09-08T10:05:35.727Z,95086.53
2018-09-08T10:08:02.067Z,95084.25
2018-09-08T10:10:28.436Z,95084.77
2018-09-08T10:12:54.789Z,95084.77
2018-09-08T10:15:21.125Z,95077.30
2018-09-08T10:17:47.495Z,95074.66
2018-09-08T10:20:13.859Z,95076.58
2018-09-08T10:22:40.196Z,95076.58
2018-09-08T10:25:06.529Z,95075.28
2018-09-08T10:27:32.871Z,95073.12
2018-09-08T10:29:59.842Z,95072.65
2018-09-08T10:32:25.756Z,95065.06
2018-09-08T10:34:52.157Z,95064.65
2018-09-08T10:37:18.523Z,95062.89
2018-09-08T10:39:44.861Z,95057.26
2018-09-08T10:42:11.235Z,95055.61
2018-09-08T10:44:37.564Z,95059.18
2018-09-08T10:47:03.895Z,95054.02
2018-09-08T10:49:30.226Z,95051.84
2018-09-08T10:51:56.660Z,95053.60
2018-09-08T10:54:23.208Z,95045.39
2018-09-08T10:56:49.578Z,95045.66
2018-09-08T10:59:15.906Z,95043.90
2018-09-08T11:01:42.434Z,95036.09
2018-09-08T11:04:08.596Z,95028.36
2018-09-08T11:06:34.977Z,95037.39
2018-09-08T11:09:01.358Z,95044.72
2018-09-08T11:11:27.750Z,95042.00
2018-09-08T11:13:54.104Z,95040.18
2018-09-08T11:16:20.456Z,95038.95
2018-09-08T11:18:46.834Z,95036.72
2018-09-08T11:21:13.178Z,95038.42
2018-09-08T11:23:39.520Z,95033.25
2018-09-08T11:26:05.946Z,95032.37
2018-09-08T11:28:32.308Z,95030.20
2018-09-08T11:30:58.636Z,95027.48
2018-09-08T11:33:24.964Z,95019.79
2018-09-08T11:35:51.333Z,95028.30
2018-09-08T11:38:17.839Z,95030.88
2018-09-08T11:40:44.063Z,95032.64
2018-09-08T11:43:10.461Z,95033.41
2018-09-08T11:45:36.811Z,95047.56
2018-09-08T11:48:03.132Z,95042.45
2018-09-08T11:50:29.480Z,95044.63
2018-09-08T11:52:55.931Z,95041.27
2018-09-08T11:55:22.227Z,95046.33
2018-09-08T11:57:48.576Z,95052.84
2018-09-08T12:00:14.952Z,95060.38
2018-09-08T12:02:41.275Z,95067.86
2018-09-08T12:05:07.637Z,95072.27
2018-09-08T12:07:33.965Z,95064.57
2018-09-08T12:10:00.306Z,95068.86
2018-09-08T12:12:26.801Z,95074.02
2018-09-08T12:14:53.176Z,95067.70
2018-09-08T12:17:19.509Z,95068.59
2018-09-08T12:19:45.842Z,95066.99
2018-09-08T12:22:12.214Z,95066.88
2018-09-08T12:24:38.600Z,95070.34
2018-09-08T12:27:04.957Z,95072.77
2018-09-08T12:29:31.323Z,95064.55
2018-09-08T12:31:57.657Z,95070.87
2018-09-08T12:34:24.035Z,95071.48
2018-09-08T12:36:50.355Z,95072.77
2018-09-08T12:39:16.687Z,95077.25
2018-09-08T12:41:43.071Z,95072.00
2018-09-08T12:44:09.436Z,95071.13
2018-09-08T12:46:35.777Z,95073.84
2018-09-08T12:49:02.109Z,95071.73
2018-09-08T12:51:28.499Z,95066.98
2018-09-08T12:53:54.831Z,95066.62
2018-09-08T12:56:21.207Z,95070.03
2018-09-08T12:58:47.565Z,95070.28
2018-09-08T13:01:13.962Z,95074.56
2018-09-08T13:03:40.292Z,95062.89
2018-09-08T13:06:06.620Z,95069.97
2018-09-08T13:08:32.965Z,95064.86
2018-09-08T13:10:59.306Z,95067.50
2018-09-08T13:13:25.680Z,95072.25
2018-09-08T13:15:52.019Z,95066.00
2018-09-08T13:18:18.399Z,95066.77
2018-09-08T13:20:44.720Z,95062.42
2018-09-08T13:23:11.050Z,95057.73
2018-09-08T13:25:37.401Z,95059.55
2018-09-08T13:28:03.767Z,95059.43
2018-09-08T13:30:30.099Z,95060.17
2018-09-08T13:32:56.428Z,95063.36
2018-09-08T13:35:22.747Z,95065.00
2018-09-08T13:37:49.056Z,95068.05
2018-09-08T13:40:15.375Z,95067.23
2018-09-08T13:42:41.727Z,95062.53
2018-09-08T13:45:08.083Z,95065.59
2018-09-08T13:47:34.431Z,95064.65
2018-09-08T13:50:00.844Z,95071.46
2018-09-08T13:52:27.226Z,95069.09
2018-09-08T13:54:53.558Z,95069.45
2018-09-08T13:57:19.929Z,95071.16
2018-09-08T13:59:46.265Z,95071.92
2018-09-08T14:02:12.603Z,95067.17
2018-09-08T14:04:38.978Z,95067.70
2018-09-08T14:07:05.338Z,95055.97
2018-09-08T14:09:31.680Z,95059.23
2018-09-08T14:11:58.015Z,95063.11
2018-09-08T14:14:24.372Z,95056.66
2018-09-08T14:16:50.797Z,95057.47
2018-09-08T14:19:17.135Z,95063.88
2018-09-08T14:21:43.499Z,95057.88
2018-09-08T14:24:09.827Z,95058.30
2018-09-08T14:26:36.165Z,95058.35
2018-09-08T14:29:02.547Z,95058.55
2018-09-08T14:31:28.883Z,95049.84
2018-09-08T14:33:55.544Z,95050.14
2018-09-08T14:36:21.873Z,95055.36
2018-09-08T14:38:48.247Z,95058.30
2018-09-08T14:41:14.667Z,95063.05
2018-09-08T14:43:41.044Z,95065.16
2018-09-08T14:46:07.476Z,95067.19
2018-09-08T14:48:33.850Z,95065.48
2018-09-08T14:51:00.188Z,95061.81
2018-09-08T14:53:26.539Z,95064.81
2018-09-08T14:55:52.855Z,95068.22
2018-09-08T14:58:19.186Z,95067.25
2018-09-08T15:00:45.561Z,95062.50
2018-09-08T15:03:11.904Z,95068.89
2018-09-08T15:05:38.329Z,95068.84
2018-09-08T15:08:04.679Z,95073.70
2018-09-08T15:10:31.037Z,95072.30
2018-09-08T15:12:57.386Z,95073.59
2018-09-08T15:15:23.860Z,95066.05
2018-09-08T15:17:50.227Z,95084.03
2018-09-08T15:20:16.560Z,95095.33
2018-09-08T15:22:42.971Z,95094.91
2018-09-08T15:25:09.335Z,95100.48
2018-09-08T15:27:35.651Z,95102.66
2018-09-08T15:30:02.027Z,95101.02
2018-09-08T15:32:28.360Z,95104.06
2018-09-08T15:34:54.688Z,95104.01
2018-09-08T15:37:21.019Z,95102.03
2018-09-08T15:39:47.400Z,95100.27
2018-09-08T15:42:13.747Z,95098.57
2018-09-08T15:44:40.096Z,95100.33
2018-09-08T15:47:06.505Z,95095.27
2018-09-08T15:49:32.842Z,95090.94
2018-09-08T15:51:59.222Z,95094.86
2018-09-08T15:54:25.577Z,95096.77
2018-09-08T15:56:51.908Z,95091.19
2018-09-08T15:59:18.266Z,95094.43
2018-09-08T16:01:44.636Z,95100.11
2018-09-08T16:04:10.986Z,95098.52
2018-09-08T16:06:37.360Z,95101.25
2018-09-08T16:09:03.694Z,95103.47
2018-09-08T16:11:30.132Z,95104.51
2018-09-08T16:13:56.422Z,95106.24
2018-09-08T16:16:22.759Z,95101.82
2018-09-08T16:18:49.162Z,95110.75
2018-09-08T16:21:15.496Z,95116.23
2018-09-08T16:23:41.844Z,95111.21
2018-09-08T16:26:08.210Z,95111.52
2018-09-08T16:28:34.546Z,95117.14
2018-09-08T16:31:00.917Z,95118.44
2018-09-08T16:33:27.242Z,95124.06
2018-09-08T16:35:53.579Z,95125.77
2018-09-08T16:38:19.899Z,95123.08
2018-09-08T16:40:46.233Z,95129.70
2018-09-08T16:43:12.575Z,95130.72
2018-09-08T16:45:38.890Z,95136.54
2018-09-08T16:48:05.323Z,95133.95
2018-09-08T16:50:31.681Z,95137.94
2018-09-08T16:52:58.065Z,95144.12
2018-09-08T16:55:24.411Z,95148.98
2018-09-08T16:57:50.814Z,95155.92
2018-09-08T17:00:17.142Z,95157.69
2018-09-08T17:02:43.545Z,95166.16
2018-09-08T17:05:09.911Z,95171.25
2018-09-08T17:07:36.537Z,95176.30
2018-09-08T17:10:02.894Z,95175.87
2018-09-08T17:12:29.269Z,95183.63
2018-09-08T17:14:55.607Z,95185.52
2018-09-08T17:17:21.951Z,95189.49
2018-09-08T17:19:48.285Z,95191.20
2018-09-08T17:22:14.644Z,95196.58
2018-09-08T17:24:40.985Z,95194.30
2018-09-08T17:27:07.332Z,95197.53
2018-09-08T17:29:33.656Z,95200.88
2018-09-08T17:32:00.006Z,95205.69
2018-09-08T17:34:26.396Z,95206.62
2018-09-08T17:36:52.788Z,95208.23
2018-09-08T17:39:19.122Z,95210.45
2018-09-08T17:41:45.453Z,95209.02
2018-09-08T17:44:11.783Z,95211.48
2018-09-08T17:46:38.134Z,95208.28
2018-09-08T17:49:04.481Z,95209.63
2018-09-08T17:51:30.895Z,95213.98
2018-09-08T17:53:57.200Z,95218.81
2018-09-08T17:56:23.555Z,95225.31
2018-09-08T17:58:49.948Z,95224.54
2018-09-08T18:01:16.341Z,95237.28
2018-09-08T18:03:42.927Z,95239.97
2018-09-08T18:06:09.299Z,95243.02
2018-09-08T18:08:35.696Z,95236.47
2018-09-08T18:11:02.044Z,95245.61
2018-09-08T18:13:28.360Z,95242.15
2018-09-08T18:15:54.693Z,95246.84
2018-09-08T18:18:21.023Z,95253.98
2018-09-08T18:20:47.359Z,95251.83
2018-09-08T18:23:13.704Z,95253.30
2018-09-08T18:25:40.075Z,95261.14
2018-09-08T18:28:06.513Z,95261.16
2018-09-08T18:30:32.836Z,95266.13
2018-09-08T18:32:59.286Z,95264.59
2018-09-08T18:35:25.603Z,95267.87
2018-09-08T18:37:51.972Z,95272.19
2018-09-08T18:40:18.327Z,95270.63
2018-09-08T18:42:44.783Z,95265.38
2018-09-08T18:45:11.131Z,95271.88
2018-09-08T18:47:37.511Z,95269.48
2018-09-08T18:50:03.855Z,95271.75
2018-09-08T18:52:30.236Z,95268.61
2018-09-08T18:54:56.694Z,95268.13
2018-09-08T18:57:23.034Z,95263.45
2018-09-08T18:59:49.631Z,95262.63
2018-09-08T19:02:15.991Z,95261.56
2018-09-08T19:04:42.369Z,95256.69
2018-09-08T19:07:08.714Z,95258.63
2018-09-08T19:09:35.051Z,95254.89
2018-09-08T19:12:01.428Z,95255.21
2018-09-08T19:14:27.743Z,95250.60
2018-09-08T19:16:54.123Z,95255.45
2018-09-08T19:19:20.460Z,95248.08
2018-09-08T19:21:46.838Z,95251.72
2018-09-08T19:24:13.216Z,95246.38
2018-09-08T19:26:39.623Z,95255.30
2018-09-08T19:29:06.013Z,95252.77
2018-09-08T19:31:32.395Z,95254.06
2018-09-08T19:33:58.908Z,95256.17
2018-09-08T19:36:25.253Z,95268.07
2018-09-08T19:38:51.584Z,95271.48
2018-09-08T19:41:18.076Z,95268.34
2018-09-08T19:43:44.408Z,95276.50
2018-09-08T19:46:10.782Z,95269.36
2018-09-08T19:48:37.172Z,95274.16
2018-09-08T19:51:03.560Z,95270.47
2018-09-08T19:53:29.900Z,95269.05
2018-09-08T19:55:56.293Z,95269.83
2018-09-08T19:58:22.651Z,95281.72
2018-09-08T20:00:49.063Z,95272.92
2018-09-08T20:03:15.419Z,95272.27
2018-09-08T20:05:41.827Z,95274.52
2018-09-08T20:08:08.169Z,95273.10
2018-09-08T20:10:34.546Z,95275.86
2018-09-08T20:13:00.921Z,95281.07
2018-09-08T20:15:27.329Z,95284.94
2018-09-08T20:17:53.711Z,95283.70
2018-09-08T20:20:20.055Z,95290.56
2018-09-08T20:22:46.430Z,95295.57
2018-09-08T20:25:12.796Z,95296.55
2018-09-08T20:27:39.199Z,95291.21
2018-09-08T20:30:05.551Z,95295.95
2018-09-08T20:32:31.908Z,95296.55
2018-09-08T20:34:58.345Z,95299.26
2018-09-08T20:37:24.671Z,95295.21
2018-09-08T20:39:51.076Z,95297.20
2018-09-08T20:42:17.455Z,95299.41
2018-09-08T20:44:43.842Z,95301.66
2018-09-08T20:47:10.172Z,95304.70
2018-09-08T20:49:36.648Z,95307.61
2018-09-08T20:52:02.982Z,95309.95
2018-09-08T20:54:29.312Z,95303.92
2018-09-08T20:56:55.643Z,95303.98
2018-09-08T20:59:21.972Z,95305.63
2018-09-08T21:01:48.340Z,95309.55
2018-09-08T21:04:14.667Z,95313.41
2018-09-08T21:06:40.993Z,95311.25
2018-09-08T21:09:07.329Z,95309.62
2018-09-08T21:11:33.689Z,95318.98
2018-09-08T21:14:00.092Z,95317.23
2018-09-08T21:16:26.453Z,95317.28
2018-09-08T21:18:52.787Z,95318.16
2018-09-08T21:21:19.104Z,95320.87
2018-09-08T21:23:45.463Z,95320.55
2018-09-08T21:26:11.796Z,95314.52
2018-09-08T21:28:38.128Z,95317.92
2018-09-08T21:31:04.935Z,95321.52
2018-09-08T21:33:31.284Z,95319.16
2018-09-08T21:35:57.605Z,95327.50
2018-09-08T21:38:23.980Z,95325.30
2018-09-08T21:40:50.307Z,95322.44
2018-09-08T21:43:16.674Z,95321.15
2018-09-08T21:45:43.071Z,95317.88
2018-09-08T21:48:09.432Z,95316.92
2018-09-08T21:50:35.824Z,95315.94
2018-09-08T21:53:02.162Z,95314.94
2018-09-08T21:55:28.491Z,95320.92
2018-09-08T21:57:55.000Z,95318.75
2018-09-08T22:00:21.327Z,95318.34
2018-09-08T22:02:47.725Z,95320.97
2018-09-08T22:05:14.050Z,95327.83
2018-09-08T22:07:40.415Z,95325.76
2018-09-08T22:10:06.743Z,95323.95
2018-09-08T22:12:33.152Z,95322.08
2018-09-08T22:14:59.508Z,95317.97
2018-09-08T22:17:25.888Z,95324.28
2018-09-08T22:19:52.213Z,95321.97
2018-09-08T22:22:18.566Z,95325.30
2018-09-08T22:24:44.945Z,95328.93
2018-09-08T22:27:11.283Z,95328.75
2018-09-08T22:29:37.763Z,95328.16
2018-09-08T22:32:04.092Z,95331.97
2018-09-08T22:34:30.447Z,95328.70
2018-09-08T22:36:56.801Z,95325.70
2018-09-08T22:39:23.268Z,95324.42
2018-09-08T22:41:49.699Z,95320.97
2018-09-08T22:44:16.033Z,95323.05
2018-09-08T22:46:42.437Z,95321.42
2018-09-08T22:49:08.905Z,95318.80
2018-09-08T22:51:35.237Z,95325.70
2018-09-08T22:54:01.583Z,95318.06
2018-09-08T22:56:27.956Z,95317.89
2018-09-08T22:58:54.271Z,95320.13
2018-09-08T23:01:20.627Z,95323.45
2018-09-08T23:03:46.953Z,95323.59
2018-09-08T23:06:13.378Z,95317.23
2018-09-08T23:08:39.720Z,95318.66
2018-09-08T23:11:06.096Z,95317.23
2018-09-08T23:13:32.480Z,95314.56
2018-09-08T23:15:58.805Z,95314.37
2018-09-08T23:18:25.176Z,95316.73
2018-09-08T23:20:51.540Z,95314.84
2018-09-08T23:23:17.885Z,95313.09
2018-09-08T23:25:44.258Z,95314.06
2018-09-08T23:28:10.584Z,95310.38
2018-09-08T23:30:36.924Z,95308.16
2018-09-08T23:33:03.244Z,95308.03
2018-09-08T23:35:29.577Z,95306.80
2018-09-08T23:37:55.924Z,95310.74
2018-09-08T23:40:22.283Z,95317.70
2018-09-08T23:42:48.608Z,95314.30
2018-09-08T23:45:14.982Z,95320.27
2018-09-08T23:47:41.334Z,95316.69
2018-09-08T23:50:07.708Z,95315.17
2018-09-08T23:52:34.035Z,95312.49
2018-09-08T23:55:00.355Z,95312.95
2018-09-08T23:57:26.721Z,95313.28
2018-09-08T23:59:53.044Z,95318.02
